Time;durP1;ratioP1;P1;durP2;ratioP2;P2;SDS_P1;SDS_P2;PMS_P1;PMS_P2;Temp;Humidity;BMP_temperature;BMP_pressure;BME280_temperature;BME280_humidity;BME280_pressure;Samples;Min_cycle;Max_cycle;Signal;HPM_P1;HPM_P2
2022/02/20 00:01:45;;;;;;;;;;;;;;;2.15;65.14;98935.17;1801681;79;20119;-67
2022/02/20 00:04:19;;;;;;;;;;;;;;;2.11;65.10;98938.97;1786939;80;20426;-67
2022/02/20 00:06:45;;;;;;;;;;;;;;;2.11;65.39;98939.52;1790826;80;20092;-67
2022/02/20 00:09:15;;;;;;;;;;;;;;;2.05;65.59;98940.06;1792321;80;20092;-66
2022/02/20 00:11:44;;;;;;;;;;;;;;;2.02;65.91;98938.45;1791322;80;21165;-66
2022/02/20 00:14:10;;;;;;;;;;;;;;;1.99;66.05;98941.16;1791570;80;20166;-66
2022/02/20 00:16:41;;;;;;;;;;;;;;;1.95;66.27;98938.19;1764059;80;20098;-68
2022/02/20 00:19:17;;;;;;;;;;;;;;;1.92;66.64;98940.09;1736366;81;20421;-68
2022/02/20 00:21:47;;;;;;;;;;;;;;;1.87;67.01;98957.69;1760497;80;20098;-68
2022/02/20 00:24:16;;;;;;;;;;;;;;;1.85;67.24;98944.98;1760576;81;21165;-67
2022/02/20 00:26:47;;;;;;;;;;;;;;;1.85;67.33;98950.94;1760756;81;20429;-67
2022/02/20 00:29:14;;;;;;;;;;;;;;;1.84;67.47;98959.59;1761440;80;20273;-66
2022/02/20 00:31:43;;;;;;;;;;;;;;;1.81;67.69;98956.08;1790507;80;20870;-66
2022/02/20 00:34:11;;;;;;;;;;;;;;;1.79;68.10;98961.50;1788078;80;20136;-66
2022/02/20 00:36:40;;;;;;;;;;;;;;;1.78;68.27;98971.51;1791946;80;21754;-65
2022/02/20 00:39:15;;;;;;;;;;;;;;;1.77;68.40;98969.08;1808113;78;20093;-67
2022/02/20 00:41:47;;;;;;;;;;;;;;;1.75;68.53;98963.13;1736430;81;20086;-66
2022/02/20 00:44:17;;;;;;;;;;;;;;;1.77;68.58;98967.18;1736278;81;20118;-67
2022/02/20 00:46:44;;;;;;;;;;;;;;;1.79;69.00;98964.20;1775566;80;20088;-67
2022/02/20 00:49:15;;;;;;;;;;;;;;;1.79;68.78;98972.32;1790910;79;21156;-67
2022/02/20 00:51:44;;;;;;;;;;;;;;;1.77;68.86;98969.88;1772825;80;20439;-67
2022/02/20 00:54:11;;;;;;;;;;;;;;;1.77;68.92;98979.36;1787090;80;20172;-67
2022/02/20 00:56:44;;;;;;;;;;;;;;;1.74;69.08;98973.67;1790941;79;20112;-67
2022/02/20 00:59:14;;;;;;;;;;;;;;;1.70;69.20;98978.84;1786695;80;20146;-67
2022/02/20 01:01:44;;;;;;;;;;;;;;;1.65;69.32;98984.27;1790567;80;21154;-67
2022/02/20 01:04:14;;;;;;;;;;;;;;;1.62;69.47;98982.91;1790228;80;20423;-67
2022/02/20 01:06:48;;;;;;;;;;;;;;;1.60;69.76;98993.73;1791427;79;20112;-67
2022/02/20 01:09:12;;;;;;;;;;;;;;;1.58;69.96;98994.55;1798121;78;20415;-67
2022/02/20 01:11:44;;;;;;;;;;;;;;;1.58;70.10;98999.41;1796466;79;20415;-66
2022/02/20 01:14:12;;;;;;;;;;;;;;;1.59;70.20;99000.22;1791631;80;21173;-67
2022/02/20 01:16:42;;;;;;;;;;;;;;;1.60;70.31;99006.72;1791332;80;20101;-67
2022/02/20 01:19:11;;;;;;;;;;;;;;;1.61;70.50;99003.47;1787134;80;20120;-67
2022/02/20 01:21:43;;;;;;;;;;;;;;;1.63;70.63;99008.07;1790752;79;20149;-67
2022/02/20 01:24:12;;;;;;;;;;;;;;;1.61;70.64;99008.88;1791739;80;20426;-67
2022/02/20 01:26:42;;;;;;;;;;;;;;;1.60;70.80;99009.96;1790672;79;21171;-67
2022/02/20 01:29:14;;;;;;;;;;;;;;;1.59;70.87;99013.75;1791736;80;20106;-67
2022/02/20 01:34:15;;;;;;;;;;;;;;;1.63;71.12;99028.36;1775586;80;20094;-68
2022/02/20 01:36:43;;;;;;;;;;;;;;;1.66;71.39;99023.77;1791808;80;20090;-67
2022/02/20 01:39:11;;;;;;;;;;;;;;;1.69;71.35;99024.58;1791194;79;21223;-67
2022/02/20 01:41:45;;;;;;;;;;;;;;;1.71;71.34;99025.13;1791091;79;20134;-67
2022/02/20 01:44:13;;;;;;;;;;;;;;;1.74;71.28;99026.45;1791905;79;20418;-66
2022/02/20 01:46:55;;;;;;;;;;;;;;;1.78;71.25;99026.17;1802851;79;20090;-67
2022/02/20 01:49:23;;;;;;;;;;;;;;;1.82;71.03;99025.36;1791764;80;20139;-68
2022/02/20 01:51:53;;;;;;;;;;;;;;;1.84;70.69;99024.55;1777305;80;20113;-67
2022/02/20 01:54:28;;;;;;;;;;;;;;;1.84;70.56;99021.03;1791748;80;20095;-67
2022/02/20 01:56:57;;;;;;;;;;;;;;;1.80;70.56;99023.47;1791551;79;20130;-67
2022/02/20 01:59:26;;;;;;;;;;;;;;;1.77;70.56;99021.30;1801648;79;20094;-66
2022/02/20 02:02:19;;;;;;;;;;;;;;;1.72;70.72;99024.04;1749522;81;20096;-66
2022/02/20 02:04:58;;;;;;;;;;;;;;;1.65;71.01;99016.73;1736888;81;21807;-66
2022/02/20 02:07:27;;;;;;;;;;;;;;;1.59;71.15;99017.81;1739545;82;20101;-66
2022/02/20 02:10:08;;;;;;;;;;;;;;;1.55;71.43;99032.95;1658119;86;20129;-67
2022/02/20 02:12:39;;;;;;;;;;;;;;;1.48;71.66;99029.16;1725148;82;20101;-68
2022/02/20 02:18:00;;;;;;;;;;;;;;;1.37;72.22;99022.65;1765436;80;21963;-68
2022/02/20 02:20:42;;;;;;;;;;;;;;;1.31;72.30;99032.11;1781418;80;20148;-67
2022/02/20 02:23:21;;;;;;;;;;;;;;;1.25;72.63;99022.89;1783646;80;20116;-67
2022/02/20 02:26:02;;;;;;;;;;;;;;;1.20;73.00;99038.56;1682070;85;20092;-67
2022/02/20 02:28:35;;;;;;;;;;;;;;;1.14;73.09;99041.02;1657081;85;20104;-67
2022/02/20 02:31:09;;;;;;;;;;;;;;;1.11;73.27;99044.80;1679244;85;21213;-67
2022/02/20 02:33:38;;;;;;;;;;;;;;;1.06;73.49;99042.88;1693835;80;20744;-67
2022/02/20 02:36:13;;;;;;;;;;;;;;;1.04;73.83;99049.09;1783707;80;20108;-67
2022/02/20 02:38:42;;;;;;;;;;;;;;;1.01;73.98;99046.92;1782462;80;20124;-67
2022/02/20 02:41:11;;;;;;;;;;;;;;;0.96;74.14;99045.55;1783673;80;20412;-67
2022/02/20 02:43:46;;;;;;;;;;;;;;;0.93;74.45;99041.48;1783858;80;21109;-67
2022/02/20 02:46:16;;;;;;;;;;;;;;;0.89;74.54;99045.80;1783639;80;20124;-67
2022/02/20 02:48:48;;;;;;;;;;;;;;;0.83;74.80;99046.05;1783023;80;20088;-67
2022/02/20 02:51:17;;;;;;;;;;;;;;;0.78;75.07;99042.78;1783923;80;20096;-67
2022/02/20 02:53:51;;;;;;;;;;;;;;;0.75;75.17;99045.20;1783630;80;20124;-67
2022/02/20 02:56:22;;;;;;;;;;;;;;;0.71;75.36;99044.09;1783802;80;21158;-67
2022/02/20 02:58:52;;;;;;;;;;;;;;;0.68;75.78;99046.78;1782910;80;20085;-67
2022/02/20 03:01:24;;;;;;;;;;;;;;;0.66;75.73;99049.75;1783574;80;20120;-68
2022/02/20 03:03:57;;;;;;;;;;;;;;;0.63;75.83;99051.62;1782863;80;20108;-67
2022/02/20 03:06:26;;;;;;;;;;;;;;;0.59;75.94;99052.41;1787301;80;20081;-67
2022/02/20 03:08:55;;;;;;;;;;;;;;;0.56;76.24;99051.62;1790619;80;21182;-67
2022/02/20 03:11:21;;;;;;;;;;;;;;;0.56;76.69;99053.78;1791703;80;20115;-68
2022/02/20 03:13:55;;;;;;;;;;;;;;;0.54;76.86;99049.18;1767492;80;20068;-67
2022/02/20 03:16:25;;;;;;;;;;;;;;;0.54;76.96;99047.83;1767668;80;20098;-67
2022/02/20 03:18:54;;;;;;;;;;;;;;;0.52;76.94;99052.67;1760008;81;20095;-68
2022/02/20 03:21:26;;;;;;;;;;;;;;;0.51;77.01;99054.29;1760683;81;21112;-70
2022/02/20 03:23:59;;;;;;;;;;;;;;;0.50;77.22;99058.06;1760263;81;20137;-70
2022/02/20 03:26:31;;;;;;;;;;;;;;;0.48;77.40;99067.78;1760440;81;20201;-66
2022/02/20 03:29:06;;;;;;;;;;;;;;;0.48;77.52;99069.67;1760564;81;20111;-67
2022/02/20 03:31:40;;;;;;;;;;;;;;;0.47;77.58;99076.95;1759789;81;20094;-66
2022/02/20 03:34:08;;;;;;;;;;;;;;;0.46;77.64;99079.91;1759610;81;21889;-67
2022/02/20 03:36:40;;;;;;;;;;;;;;;0.46;78.28;99086.67;1760380;81;20140;-66
2022/02/20 03:39:18;;;;;;;;;;;;;;;0.43;78.32;99078.55;1735947;81;20422;-66
2022/02/20 03:41:48;;;;;;;;;;;;;;;0.45;78.31;99089.91;1759932;81;20083;-68
2022/02/20 03:44:18;;;;;;;;;;;;;;;0.46;78.33;99089.37;1723476;82;20145;-67
2022/02/20 03:46:46;;;;;;;;;;;;;;;0.45;78.48;99098.00;1708173;84;21174;-68
2022/02/20 03:49:16;;;;;;;;;;;;;;;0.45;78.60;99095.30;1709028;82;20114;-67
2022/02/20 03:52:00;;;;;;;;;;;;;;;0.43;78.72;99096.10;1708384;84;20155;-67
2022/02/20 03:54:39;;;;;;;;;;;;;;;0.41;78.74;99100.95;1703083;84;20223;-67
2022/02/20 03:57:12;;;;;;;;;;;;;;;0.36;78.92;99106.31;1682164;84;20134;-67
2022/02/20 04:00:05;;;;;;;;;;;;;;;0.33;79.58;99100.89;1681926;84;20107;-66
2022/02/20 04:02:34;;;;;;;;;;;;;;;0.29;79.56;99103.02;1682032;84;20183;-67
2022/02/20 04:05:05;;;;;;;;;;;;;;;0.26;79.80;99104.36;1730259;82;20100;-67
2022/02/20 04:07:31;;;;;;;;;;;;;;;0.24;79.97;99099.75;1787839;80;20102;-67
2022/02/20 04:10:10;;;;;;;;;;;;;;;0.23;80.09;99103.52;1741479;81;20143;-67
2022/02/20 04:12:39;;;;;;;;;;;;;;;0.22;80.11;99105.95;1759521;81;21955;-65
2022/02/20 04:15:12;;;;;;;;;;;;;;;0.20;80.43;99098.64;1767157;80;20169;-66
2022/02/20 04:17:43;;;;;;;;;;;;;;;0.20;80.45;99105.92;1788981;80;20084;-67
2022/02/20 04:20:15;;;;;;;;;;;;;;;0.19;80.61;99101.60;1788936;80;20155;-67
2022/02/20 04:22:47;;;;;;;;;;;;;;;0.16;80.87;99100.23;1786436;80;20116;-66
2022/02/20 04:25:24;;;;;;;;;;;;;;;0.14;81.09;99100.21;1763620;80;20104;-68
2022/02/20 04:27:55;;;;;;;;;;;;;;;0.13;81.22;99094.00;1789310;80;20132;-66
2022/02/20 04:30:30;;;;;;;;;;;;;;;0.13;81.39;99101.28;1788314;80;20431;-66
2022/02/20 04:32:57;;;;;;;;;;;;;;;0.11;81.38;99102.08;1788257;80;21973;-65
2022/02/20 04:35:34;;;;;;;;;;;;;;;0.12;81.48;99111.80;1819344;78;20106;-67
2022/02/20 04:38:07;;;;;;;;;;;;;;;0.10;81.52;99111.25;1769543;78;21597;-68
2022/02/20 04:40:34;;;;;;;;;;;;;;;0.08;81.81;99117.44;1810977;78;20077;-69
2022/02/20 04:43:05;;;;;;;;;;;;;;;0.07;82.03;99116.63;1823078;78;20094;-68
2022/02/20 04:45:35;;;;;;;;;;;;;;;0.08;82.07;99115.55;1823329;78;20117;-68
2022/02/20 04:48:09;;;;;;;;;;;;;;;0.08;82.10;99123.65;1821145;78;20093;-70
2022/02/20 04:50:43;;;;;;;;;;;;;;;0.09;82.25;99121.23;1823290;78;21103;-69
2022/02/20 04:53:15;;;;;;;;;;;;;;;0.10;82.45;99126.09;1822655;78;20133;-68
2022/02/20 04:55:43;;;;;;;;;;;;;;;0.08;82.35;99128.23;1822906;78;20153;-69
2022/02/20 04:58:15;;;;;;;;;;;;;;;0.08;82.56;99132.28;1814635;78;20166;-70
2022/02/20 05:00:50;;;;;;;;;;;;;;;0.09;82.45;99125.81;1795664;78;20105;-67
2022/02/20 05:03:23;;;;;;;;;;;;;;;0.08;82.47;99136.33;1823835;78;21222;-68
2022/02/20 05:05:58;;;;;;;;;;;;;;;0.06;82.46;99134.42;1792429;78;20401;-68
2022/02/20 05:08:32;;;;;;;;;;;;;;;0.05;82.44;99135.49;1766165;80;20107;-71
2022/02/20 05:10:57;;;;;;;;;;;;;;;0.03;82.43;99138.45;1792818;80;20096;-66
2022/02/20 05:13:26;;;;;;;;;;;;;;;0.02;82.57;99142.22;1793616;80;20432;-69
2022/02/20 05:15:56;;;;;;;;;;;;;;;0.02;82.68;99139.52;1758878;78;21111;-66
2022/02/20 05:18:27;;;;;;;;;;;;;;;0.04;82.81;99146.83;1751275;80;20094;-66
2022/02/20 05:21:02;;;;;;;;;;;;;;;0.10;82.93;99157.13;1789944;80;20148;-68
2022/02/20 05:23:39;;;;;;;;;;;;;;;0.13;82.82;99157.97;1791027;80;20168;-68
2022/02/20 05:26:05;;;;;;;;;;;;;;;0.15;82.78;99165.27;1794020;80;20113;-68
2022/02/20 05:28:35;;;;;;;;;;;;;;;0.15;82.76;99166.09;1791186;80;21167;-69
2022/02/20 05:31:05;;;;;;;;;;;;;;;0.16;82.77;99166.36;1793812;80;20151;-68
2022/02/20 05:33:33;;;;;;;;;;;;;;;0.19;82.75;99169.09;1793536;80;20096;-67
2022/02/20 05:36:06;;;;;;;;;;;;;;;0.20;82.86;99165.31;1792205;80;20112;-68
2022/02/20 05:38:33;;;;;;;;;;;;;;;0.25;83.08;99162.66;1793177;78;20088;-68
2022/02/20 05:41:02;;;;;;;;;;;;;;;0.32;83.13;99155.97;1772348;80;21146;-71
2022/02/20 05:43:35;;;;;;;;;;;;;;;0.41;83.13;99165.76;1742888;81;20096;-71
2022/02/20 05:46:07;;;;;;;;;;;;;;;0.49;82.78;99161.77;1757549;81;20457;-69
2022/02/20 05:48:37;;;;;;;;;;;;;;;0.59;82.65;99168.02;1760321;81;20431;-71
2022/02/20 05:51:12;;;;;;;;;;;;;;;0.65;82.42;99169.69;1762070;81;20084;-68
2022/02/20 05:53:40;;;;;;;;;;;;;;;0.69;81.89;99169.17;1761222;81;21935;-69
2022/02/20 05:56:07;;;;;;;;;;;;;;;0.69;81.66;99174.57;1762491;81;20183;-69
2022/02/20 05:58:36;;;;;;;;;;;;;;;0.68;81.58;99180.52;1748478;81;20136;-68
2022/02/20 06:01:04;;;;;;;;;;;;;;;0.68;81.51;99185.10;1762605;81;20080;-70
2022/02/20 06:03:31;;;;;;;;;;;;;;;0.69;81.63;99183.48;1762523;80;20116;-69
2022/02/20 06:06:05;;;;;;;;;;;;;;;0.71;81.66;99185.40;1715234;81;21740;-69
2022/02/20 06:08:40;;;;;;;;;;;;;;;0.74;81.61;99190.81;1754763;81;20437;-69
2022/02/20 06:11:12;;;;;;;;;;;;;;;0.79;81.58;99192.20;1771139;80;20142;-70
2022/02/20 06:13:41;;;;;;;;;;;;;;;0.82;81.51;99194.38;1789306;80;20242;-69
2022/02/20 06:16:26;;;;;;;;;;;;;;;0.86;81.79;99190.09;1783658;80;20096;-69
2022/02/20 06:19:02;;;;;;;;;;;;;;;0.90;81.29;99192.55;1781717;80;20088;-72
2022/02/20 06:21:39;;;;;;;;;;;;;;;0.94;80.73;99192.30;1781889;80;20487;-73
2022/02/20 06:24:24;;;;;;;;;;;;;;;0.98;80.74;99198.27;1781902;80;20116;-72
2022/02/20 06:26:52;;;;;;;;;;;;;;;1.03;80.38;99198.03;1784707;80;20076;-71
2022/02/20 06:29:18;;;;;;;;;;;;;;;1.08;79.78;99198.06;1788909;80;20171;-69
2022/02/20 06:31:44;;;;;;;;;;;;;;;1.12;79.64;99192.41;1788495;80;21067;-68
2022/02/20 06:34:12;;;;;;;;;;;;;;;1.15;79.58;99196.75;1781435;80;20426;-68
2022/02/20 06:36:40;;;;;;;;;;;;;;;1.21;79.81;99201.08;1764914;80;20080;-68
2022/02/20 06:39:10;;;;;;;;;;;;;;;1.29;79.14;99199.77;1788092;80;20096;-68
2022/02/20 06:41:37;;;;;;;;;;;;;;;1.33;78.77;99203.03;1733808;81;20094;-68
2022/02/20 06:44:05;;;;;;;;;;;;;;;1.41;78.65;99215.23;1757036;81;21170;-68
2022/02/20 06:46:49;;;;;;;;;;;;;;;1.48;78.27;99216.34;1756459;81;20414;-68
2022/02/20 06:49:26;;;;;;;;;;;;;;;1.55;78.10;99215.56;1755342;81;20099;-68
2022/02/20 06:51:57;;;;;;;;;;;;;;;1.62;77.96;99221.55;1690977;85;20123;-69
2022/02/20 06:54:42;;;;;;;;;;;;;;;1.72;77.59;99220.77;1696518;84;20103;-69
2022/02/20 06:57:22;;;;;;;;;;;;;;;1.97;77.73;99222.98;1754625;81;21181;-68
2022/02/20 06:59:48;;;;;;;;;;;;;;;2.55;76.12;99218.70;1757041;81;20198;-68
2022/02/20 07:02:14;;;;;;;;;;;;;;;3.14;74.58;99216.71;1757118;81;20418;-68
2022/02/20 07:04:41;;;;;;;;;;;;;;;3.72;72.67;99215.67;1757159;81;20501;-68
2022/02/20 07:07:07;;;;;;;;;;;;;;;4.23;69.17;99218.89;1775493;79;20092;-68
2022/02/20 07:09:33;;;;;;;;;;;;;;;4.64;68.51;99205.24;1809553;79;21122;-69
2022/02/20 07:12:01;;;;;;;;;;;;;;;5.03;65.58;99206.25;1789998;79;20092;-70
2022/02/20 07:14:27;;;;;;;;;;;;;;;5.34;63.86;99201.27;1788088;80;20080;-69
2022/02/20 07:16:54;;;;;;;;;;;;;;;5.58;62.83;99193.91;1788511;80;20419;-69
2022/02/20 07:19:21;;;;;;;;;;;;;;;5.81;62.33;99200.40;1788027;80;20108;-70
2022/02/20 07:21:49;;;;;;;;;;;;;;;6.04;60.37;99192.76;1788236;80;40129;-70
2022/02/20 07:24:15;;;;;;;;;;;;;;;6.21;60.23;99190.33;1787997;80;20107;-70
2022/02/20 07:26:41;;;;;;;;;;;;;;;6.46;58.76;99184.20;1788138;80;20461;-71
2022/02/20 07:29:08;;;;;;;;;;;;;;;6.59;57.97;99184.25;1788031;80;20611;-67
2022/02/20 07:31:34;;;;;;;;;;;;;;;6.72;58.27;99187.32;1788039;80;20100;-68
2022/02/20 07:34:01;;;;;;;;;;;;;;;6.94;57.38;99187.45;1788083;80;21479;-67
2022/02/20 07:36:27;;;;;;;;;;;;;;;7.15;56.29;99184.60;1788061;80;20096;-69
2022/02/20 07:38:53;;;;;;;;;;;;;;;7.27;55.25;99186.28;1788352;80;20096;-69
2022/02/20 07:41:19;;;;;;;;;;;;;;;7.35;55.09;99190.23;1789076;80;20180;-69
2022/02/20 07:43:48;;;;;;;;;;;;;;;7.46;54.76;99182.66;1788631;80;20096;-68
2022/02/20 07:46:14;;;;;;;;;;;;;;;7.58;54.25;99182.92;1788243;80;21375;-67
2022/02/20 07:48:40;;;;;;;;;;;;;;;7.77;53.96;99191.81;1788273;80;20104;-68
2022/02/20 07:51:07;;;;;;;;;;;;;;;7.97;52.79;99193.30;1788293;80;20120;-67
2022/02/20 07:53:35;;;;;;;;;;;;;;;8.02;51.99;99188.28;1786643;80;20096;-71
2022/02/20 07:56:03;;;;;;;;;;;;;;;7.98;52.40;99184.55;1787227;80;20100;-68
2022/02/20 07:58:31;;;;;;;;;;;;;;;8.06;51.67;99196.12;1759912;80;21187;-66
2022/02/20 08:01:00;;;;;;;;;;;;;;;8.14;51.61;99192.63;1788103;80;20096;-66
2022/02/20 08:03:34;;;;;;;;;;;;;;;8.22;50.81;99183.69;1759320;80;20088;-65
2022/02/20 08:06:00;;;;;;;;;;;;;;;8.10;50.70;99195.72;1786724;80;20151;-66
2022/02/20 08:08:33;;;;;;;;;;;;;;;7.97;50.55;99203.42;1767309;80;20122;-64
2022/02/20 08:11:04;;;;;;;;;;;;;;;7.80;50.46;99193.94;1760938;81;21790;-67
2022/02/20 08:13:32;;;;;;;;;;;;;;;7.65;51.00;99199.72;1739635;81;20157;-66
2022/02/20 08:16:02;;;;;;;;;;;;;;;7.73;51.22;99194.09;1744264;80;20100;-64
2022/02/20 08:18:30;;;;;;;;;;;;;;;7.87;50.55;99194.33;1731518;83;20636;-63
2022/02/20 08:20:56;;;;;;;;;;;;;;;7.89;49.79;99194.83;1732353;83;20084;-64
2022/02/20 08:23:23;;;;;;;;;;;;;;;7.81;50.88;99196.91;1732519;83;21112;-65
2022/02/20 08:25:49;;;;;;;;;;;;;;;8.01;51.37;99203.88;1732381;82;20435;-64
2022/02/20 08:28:16;;;;;;;;;;;;;;;8.49;50.26;99202.77;1762073;80;20128;-65
2022/02/20 08:30:44;;;;;;;;;;;;;;;8.92;49.66;99211.26;1778014;80;20091;-64
2022/02/20 08:33:10;;;;;;;;;;;;;;;9.14;47.62;99200.03;1793589;80;20088;-64
2022/02/20 08:35:36;;;;;;;;;;;;;;;9.18;47.25;99201.83;1793404;78;21177;-65
2022/02/20 08:38:04;;;;;;;;;;;;;;;9.15;47.16;99196.98;1793382;80;20081;-64
2022/02/20 08:40:33;;;;;;;;;;;;;;;9.02;47.41;99201.98;1792730;80;20318;-65
2022/02/20 08:42:59;;;;;;;;;;;;;;;9.17;47.35;99217.20;1793552;80;20119;-65
2022/02/20 08:45:25;;;;;;;;;;;;;;;9.33;46.53;99189.62;1793439;80;20119;-65
2022/02/20 08:47:52;;;;;;;;;;;;;;;9.37;46.89;99194.72;1793415;80;21135;-65
2022/02/20 08:50:18;;;;;;;;;;;;;;;9.46;45.59;99196.92;1793484;80;20131;-64
2022/02/20 08:52:50;;;;;;;;;;;;;;;9.37;45.37;99198.02;1793209;80;20108;-66
2022/02/20 08:55:12;;;;;;;;;;;;;;;9.50;45.87;99197.11;1791225;79;20190;-65
2022/02/20 08:57:39;;;;;;;;;;;;;;;9.71;44.86;99198.14;1793630;80;20136;-65
2022/02/20 09:00:06;;;;;;;;;;;;;;;9.64;45.26;99199.73;1793448;80;21137;-65
2022/02/20 09:02:34;;;;;;;;;;;;;;;9.77;45.49;99200.98;1793249;80;20080;-65
2022/02/20 09:05:03;;;;;;;;;;;;;;;10.03;44.62;99218.03;1793216;80;20127;-65
2022/02/20 09:07:29;;;;;;;;;;;;;;;10.16;43.81;99215.72;1800029;78;20504;-65
2022/02/20 09:09:55;;;;;;;;;;;;;;;10.28;43.65;99211.81;1811272;79;20137;-69
2022/02/20 09:12:22;;;;;;;;;;;;;;;10.31;42.79;99219.39;1760069;80;21143;-67
2022/02/20 09:14:49;;;;;;;;;;;;;;;10.18;43.20;99224.43;1783265;80;20143;-66
2022/02/20 09:17:16;;;;;;;;;;;;;;;10.03;43.30;99220.21;1738838;81;20070;-66
2022/02/20 09:19:43;;;;;;;;;;;;;;;10.07;43.27;99217.63;1782784;80;20634;-66
2022/02/20 09:22:11;;;;;;;;;;;;;;;10.09;43.37;99212.64;1787154;80;20080;-66
2022/02/20 09:24:37;;;;;;;;;;;;;;;10.18;42.53;99209.34;1796775;79;21095;-65
2022/02/20 09:27:05;;;;;;;;;;;;;;;10.06;43.04;99217.39;1795592;79;20117;-72
2022/02/20 09:29:33;;;;;;;;;;;;;;;10.05;43.32;99215.21;1819830;78;20113;-68
2022/02/20 09:32:01;;;;;;;;;;;;;;;10.27;43.41;99221.16;1814666;79;20165;-69
2022/02/20 09:34:29;;;;;;;;;;;;;;;10.42;42.95;99218.48;1788731;79;20126;-67
2022/02/20 09:36:57;;;;;;;;;;;;;;;10.38;43.11;99214.23;1789432;79;22321;-68
2022/02/20 09:39:24;;;;;;;;;;;;;;;10.43;43.32;99204.44;1789123;80;20161;-68
2022/02/20 09:41:51;;;;;;;;;;;;;;;10.66;43.03;99210.58;1790270;79;20166;-69
2022/02/20 09:44:19;;;;;;;;;;;;;;;10.71;42.82;99209.03;1790358;80;20173;-70
2022/02/20 09:46:45;;;;;;;;;;;;;;;10.68;42.39;99212.99;1787472;80;20166;-70
2022/02/20 09:49:13;;;;;;;;;;;;;;;10.43;42.67;99212.67;1788666;80;21330;-70
2022/02/20 09:51:39;;;;;;;;;;;;;;;10.17;43.98;99207.73;1787610;80;20096;-68
2022/02/20 09:54:07;;;;;;;;;;;;;;;10.12;43.46;99203.77;1786997;80;20486;-71
2022/02/20 09:56:34;;;;;;;;;;;;;;;9.93;43.96;99202.69;1786337;80;20493;-68
2022/02/20 09:59:00;;;;;;;;;;;;;;;9.85;43.98;99193.31;1787309;80;20907;-70
2022/02/20 10:01:28;;;;;;;;;;;;;;;9.94;43.53;99188.66;1787133;80;21205;-69
2022/02/20 10:03:55;;;;;;;;;;;;;;;10.14;43.89;99195.47;1784925;79;20143;-74
2022/02/20 10:06:28;;;;;;;;;;;;;;;10.46;43.35;99183.78;1787604;79;20120;-70
2022/02/20 10:08:58;;;;;;;;;;;;;;;10.78;42.54;99184.64;1787466;80;21050;-69
2022/02/20 10:11:26;;;;;;;;;;;;;;;11.04;41.60;99168.08;1758489;80;20104;-69
2022/02/20 10:14:05;;;;;;;;;;;;;;;11.14;41.15;99170.47;1787755;80;21105;-68
2022/02/20 10:16:34;;;;;;;;;;;;;;;10.94;41.41;99165.71;1746348;80;20157;-71
2022/02/20 10:19:03;;;;;;;;;;;;;;;10.58;41.92;99175.14;1738269;81;20094;-72
2022/02/20 10:21:50;;;;;;;;;;;;;;;10.27;41.46;99164.92;1738027;82;20098;-75
2022/02/20 10:24:42;;;;;;;;;;;;;;;9.90;42.04;99168.48;1738061;82;20118;-66
2022/02/20 10:27:28;;;;;;;;;;;;;;;9.58;42.37;99162.87;1657849;83;21206;-69
2022/02/20 10:30:14;;;;;;;;;;;;;;;9.39;42.38;99156.05;1707815;83;20547;-70
2022/02/20 10:32:40;;;;;;;;;;;;;;;9.39;43.70;99142.34;1749658;79;20159;-69
2022/02/20 10:35:11;;;;;;;;;;;;;;;9.47;43.22;99137.45;1790052;78;20110;-67
2022/02/20 10:37:40;;;;;;;;;;;;;;;9.50;43.22;99136.27;1754078;80;20172;-69
2022/02/20 10:40:31;;;;;;;;;;;;;;;9.65;42.18;99136.94;1789491;80;21118;-67
2022/02/20 10:43:01;;;;;;;;;;;;;;;9.75;41.95;99140.75;1790025;80;20082;-67
2022/02/20 10:45:29;;;;;;;;;;;;;;;9.89;41.76;99154.53;1788461;80;20119;-67
2022/02/20 10:47:57;;;;;;;;;;;;;;;9.82;42.53;99133.64;1790707;80;20433;-67
2022/02/20 10:50:33;;;;;;;;;;;;;;;9.95;42.47;99133.25;1790864;80;20078;-67
2022/02/20 10:53:09;;;;;;;;;;;;;;;10.11;42.37;99134.95;1790022;80;21161;-67
2022/02/20 10:55:38;;;;;;;;;;;;;;;10.35;41.59;99117.48;1787032;80;20100;-68
2022/02/20 10:58:10;;;;;;;;;;;;;;;10.52;41.80;99113.88;1783875;80;20117;-68
2022/02/20 11:00:52;;;;;;;;;;;;;;;10.45;40.59;99106.14;1780982;80;20212;-69
2022/02/20 11:03:20;;;;;;;;;;;;;;;10.32;41.43;99105.78;1789947;80;20559;-67
2022/02/20 11:05:46;;;;;;;;;;;;;;;10.35;41.77;99099.64;1790202;80;21551;-68
2022/02/20 11:08:14;;;;;;;;;;;;;;;10.44;41.60;99100.41;1789997;80;20108;-68
2022/02/20 11:10:41;;;;;;;;;;;;;;;10.48;40.66;99101.94;1785854;80;20143;-67
2022/02/20 11:13:09;;;;;;;;;;;;;;;10.25;40.94;99089.81;1789974;80;20530;-67
2022/02/20 11:15:36;;;;;;;;;;;;;;;9.88;41.86;99094.54;1788671;80;20123;-67
2022/02/20 11:18:04;;;;;;;;;;;;;;;9.45;42.33;99089.02;1790104;80;21119;-67
2022/02/20 11:20:31;;;;;;;;;;;;;;;9.08;43.44;99085.72;1788112;80;20450;-67
2022/02/20 11:23:00;;;;;;;;;;;;;;;8.85;43.36;99089.09;1788305;80;20108;-68
2022/02/20 11:25:27;;;;;;;;;;;;;;;8.50;44.58;99077.18;1787513;80;20120;-67
2022/02/20 11:27:53;;;;;;;;;;;;;;;8.26;45.85;99080.77;1787667;80;20123;-70
2022/02/20 11:30:20;;;;;;;;;;;;;;;8.20;46.26;99073.81;1787347;80;21099;-68
2022/02/20 11:32:47;;;;;;;;;;;;;;;8.19;45.57;99077.67;1761341;80;20092;-70
2022/02/20 11:35:13;;;;;;;;;;;;;;;8.14;46.15;99066.30;1787410;80;20178;-68
2022/02/20 11:37:55;;;;;;;;;;;;;;;8.22;46.27;99074.31;1787335;80;20112;-68
2022/02/20 11:40:23;;;;;;;;;;;;;;;8.45;45.76;99063.64;1787464;80;20144;-73
2022/02/20 11:43:04;;;;;;;;;;;;;;;8.64;45.02;99066.16;1787377;80;21141;-77
2022/02/20 11:45:31;;;;;;;;;;;;;;;8.70;44.58;99054.48;1787765;80;20173;-73
2022/02/20 11:48:08;;;;;;;;;;;;;;;8.65;44.27;99074.61;1787303;80;20430;-75
2022/02/20 11:50:39;;;;;;;;;;;;;;;8.43;44.40;99069.17;1787506;80;20084;-74
2022/02/20 11:53:08;;;;;;;;;;;;;;;8.26;44.72;99060.27;1787272;80;20146;-78
2022/02/20 11:55:40;;;;;;;;;;;;;;;8.11;45.50;99066.11;1787237;80;21193;-79
2022/02/20 11:58:21;;;;;;;;;;;;;;;8.01;45.62;99080.05;1787826;80;20160;-81
2022/02/20 12:01:02;;;;;;;;;;;;;;;7.84;44.73;99063.77;1786750;80;20184;-75
2022/02/20 12:03:47;;;;;;;;;;;;;;;7.72;45.49;99064.06;1787437;80;20084;-76
2022/02/20 12:06:17;;;;;;;;;;;;;;;7.73;45.22;99060.21;1787721;80;20160;-75
2022/02/20 12:08:50;;;;;;;;;;;;;;;7.73;44.50;99061.02;1743529;81;20493;-77
2022/02/20 12:11:26;;;;;;;;;;;;;;;7.68;45.09;99059.77;1733886;81;20476;-67
2022/02/20 12:13:57;;;;;;;;;;;;;;;7.67;45.30;99050.52;1732501;82;20175;-67
2022/02/20 12:16:32;;;;;;;;;;;;;;;7.58;45.48;99055.90;1723140;81;20161;-64
2022/02/20 12:19:26;;;;;;;;;;;;;;;7.51;44.91;99058.27;1724982;82;20151;-66
2022/02/20 12:22:21;;;;;;;;;;;;;;;7.37;45.35;99054.77;1729980;82;21167;-65
2022/02/20 12:24:56;;;;;;;;;;;;;;;7.24;46.03;99057.20;1734526;82;20713;-67
2022/02/20 12:27:42;;;;;;;;;;;;;;;7.21;46.66;99055.09;1703659;83;20149;-64
2022/02/20 12:30:14;;;;;;;;;;;;;;;7.10;47.08;99048.22;1673907;85;20149;-65
2022/02/20 12:32:41;;;;;;;;;;;;;;;6.96;46.83;99048.23;1669808;86;20452;-65
2022/02/20 12:35:23;;;;;;;;;;;;;;;6.79;47.33;99045.88;1675160;84;21133;-65
2022/02/20 12:37:53;;;;;;;;;;;;;;;6.67;47.73;99044.20;1698031;83;20126;-65
2022/02/20 12:40:31;;;;;;;;;;;;;;;6.54;48.11;99037.62;1697235;83;20487;-65
2022/02/20 12:43:03;;;;;;;;;;;;;;;6.47;48.23;99046.20;1693370;84;20123;-69
2022/02/20 12:45:37;;;;;;;;;;;;;;;6.37;47.23;99040.12;1671160;84;20143;-67
2022/02/20 12:48:10;;;;;;;;;;;;;;;6.32;46.60;99034.23;1697240;84;21142;-67
2022/02/20 12:50:36;;;;;;;;;;;;;;;6.25;46.04;99020.19;1695995;83;20476;-67
2022/02/20 12:53:05;;;;;;;;;;;;;;;6.21;46.06;98998.73;1670446;84;20130;-66
2022/02/20 12:55:34;;;;;;;;;;;;;;;6.16;45.84;98988.72;1696748;84;20114;-67
2022/02/20 12:58:05;;;;;;;;;;;;;;;6.11;45.30;98998.91;1697119;84;20118;-67
2022/02/20 13:00:38;;;;;;;;;;;;;;;6.03;45.50;98995.50;1696416;84;21137;-67
2022/02/20 13:03:20;;;;;;;;;;;;;;;5.96;45.40;98987.71;1696678;83;20126;-73
2022/02/20 13:05:53;;;;;;;;;;;;;;;5.89;45.78;98990.02;1696493;84;20477;-72
2022/02/20 13:08:29;;;;;;;;;;;;;;;5.84;45.97;98990.88;1696558;83;20802;-68
2022/02/20 13:11:00;;;;;;;;;;;;;;;5.84;45.49;98995.52;1670178;84;20118;-78
2022/02/20 13:13:29;;;;;;;;;;;;;;;5.83;45.68;99001.52;1696758;84;21154;-78
2022/02/20 13:15:58;;;;;;;;;;;;;;;5.86;46.50;98996.03;1681614;84;20182;-79
2022/02/20 13:18:30;;;;;;;;;;;;;;;5.90;46.07;98992.99;1696777;84;20214;-75
2022/02/20 13:21:06;;;;;;;;;;;;;;;5.92;45.46;98995.67;1697192;83;20205;-67